Latest Coastal Weather Observations for Cooktown

IDQ60701

Issued at 2:42 am EST Thursday 19 October 2017 (issued every 10 minutes, with the page automatically refreshed every 10 minutes)

About coastal observations | Map of coastal stations | Coastal observations for QLD | Marine services | Other Formats
Station Details ID: 031209 Name: COOKTOWN AIRPORT Lat: -15.45 Lon: 145.19 Height: 4.8 m
Data from the previous 72 hours. | See also: Recent months at Cooktown
Date/Time
EST
Temp
°C
Wind Pressure Rain since
9am
mm
Weather Cloud Vis
km
Sea
Height
m
Swell
Dir  Spd
kts
Gust
kts
hPa Trend Height
m
Period
s
Dir
19/02:30am 24.8 NE 7 9 1009.4 - 19.2 - Partly cloudy 9 - - - -
19/02:00am 24.8 E 7 12 1009.5 - 19.2 - Partly cloudy 9 - - - -
19/01:30am 24.8 E 9 13 1009.5 - 19.2 - Partly cloudy 6 - - - -
19/01:00am 24.7 E 10 15 1010.0 - 18.8 - Partly cloudy 9 - - - -
19/12:40am 24.6 E 10 13 1010.4 - 18.8 - Partly cloudy 7 - - - -
19/12:30am 24.3 S 2 7 1010.8 - 18.8 - Partly cloudy 5 - - - -
19/12:00am 24.2 SE 6 13 1011.4 - 11.8 - Cloudy 2 - - - -
 
Date/Time
EST
Temp
°C
Wind Pressure Rain since
9am
mm
Weather Cloud Vis
km
Sea
Height
m
Swell
Dir  Spd
kts
Gust
kts
hPa Trend Height
m
Period
s
Dir
18/11:31pm 24.4 SE 6 9 1011.9 - 1.6 - Partly cloudy 5 - - - -
18/11:30pm 24.4 SE 6 9 1011.9 - 1.2 - Partly cloudy 6 - - - -
18/11:00pm 24.0 SSE 4 6 1012.3 - 0.6 - Partly cloudy 10 - - - -
18/10:30pm 24.0 SSE 9 15 1012.4 - 0.4 - Partly cloudy 9 - - - -
18/10:00pm 23.9 SE 7 9 1012.3 - 0.2 - Partly cloudy 10 - - - -
18/09:57pm 23.8 SE 7 11 1012.2 - 0.2 - Partly cloudy 10 - - - -
18/09:30pm 23.4 SE 6 8 1012.2 - 0.2 - Partly cloudy 10 - - - -
18/09:08pm 23.5 SE 10 15 1012.1 - 0.2 - Partly cloudy 10 - - - -
18/09:00pm 23.9 SSE 8 16 1011.9 - 0.2 - Cloudy 7 - - - -
18/08:30pm 24.0 SSE 7 9 1011.7 - 0.0 - Partly cloudy 10 - - - -
18/08:00pm 23.9 SSE 8 12 1011.4 - 0.0 - Partly cloudy 10 - - - -
18/07:30pm 24.0 SSE 8 12 1011.0 - 0.0 - Partly cloudy 10 - - - -
18/07:14pm 24.0 SE 8 12 1010.7 - 0.0 - Partly cloudy 10 - - - -
18/07:00pm 23.8 ESE 12 17 1010.7 - 0.0 - Partly cloudy 6 - - - -
18/06:30pm 24.7 SE 7 11 1010.3 - 0.0 - Partly cloudy 10 - - - -
18/06:00pm 25.0 SE 10 16 1009.7 - 0.0 - Mostly cloudy 10 - - - -
18/05:30pm 25.6 ESE 11 19 1009.5 - 0.0 - Partly cloudy 10 - - - -
18/05:00pm 26.6 E 11 15 1009.1 - 0.0 - Partly cloudy 10 - - - -
18/04:30pm 26.6 E 11 15 1008.6 - 0.0 - Partly cloudy 10 - - - -
18/04:00pm 26.6 ESE 15 19 1008.4 - 0.0 - Partly cloudy 10 - - - -
18/03:53pm 26.6 E 14 19 1008.4 - 0.0 - Partly cloudy 10 - - - -
18/03:30pm 26.3 E 16 21 1008.5 - 0.0 - Partly cloudy 10 - - - -
18/03:00pm 27.4 E 18 23 1008.6 - 0.0 - Partly cloudy 10 - - - -
18/02:48pm 27.4 E 17 20 1008.7 - 0.0 - Partly cloudy 10 - - - -
18/02:30pm 27.5 E 16 21 1008.7 - 0.0 - Partly cloudy 10 - - - -
18/02:00pm 28.4 E 17 22 1008.7 - 0.0 - Partly cloudy 10 - - - -
18/01:30pm 28.6 ESE 15 21 1009.0 - 0.0 - Partly cloudy 10 - - - -
18/01:00pm 28.3 ESE 12 22 1009.4 - 0.0 - Partly cloudy 10 - - - -
18/12:30pm 27.9 ESE 13 20 1009.6 - 0.0 - Partly cloudy 10 - - - -
18/12:00pm 27.3 ESE 11 17 1010.0 - 0.0 - - 10 - - - -
18/11:30am 27.9 ESE 10 16 1010.3 - 0.0 - - 10 - - - -
18/11:00am 26.7 ESE 12 17 1010.7 - 0.0 - Partly cloudy 10 - - - -
18/10:30am 26.7 ESE 10 15 1011.1 - 0.0 - - 10 - - - -
18/10:00am 25.9 ESE 10 14 1011.3 - 0.0 - Partly cloudy 10 - - - -
18/09:30am 24.9 ESE 3 6 1011.4 - 0.0 - Partly cloudy 10 - - - -
18/09:00am 22.9 CALM 0 1 1011.5 R 15.8 Fine Partly cloudy 40 - - - -
18/08:30am 22.3 NW 2 4 1011.2 - 15.8 - Partly cloudy 10 - - - -
18/08:00am 21.5 N 3 4 1011.3 - 15.8 - - 10 - - - -
18/07:30am 20.9 CALM 0 0 1010.7 - 15.8 - - 10 - - - -
18/07:00am 20.2 WNW 1 3 1010.2 - 15.8 - Partly cloudy 10 - - - -
18/06:30am 20.0 WSW 4 5 1009.7 - 15.8 - Partly cloudy 10 - - - -
18/06:00am 19.8 W 3 6 1009.3 - 15.8 - Partly cloudy 10 - - - -
18/05:30am 19.7 CALM 0 3 1009.3 - 15.8 - - 10 - - - -
18/05:00am 19.8 CALM 0 0 1009.1 - 15.6 - - 10 - - - -
18/04:30am 19.7 CALM 0 0 1009.0 - 15.6 - - 10 - - - -
18/04:00am 19.6 CALM 0 0 1008.9 - 15.6 - - 10 - - - -
18/03:30am 19.5 CALM 0 0 1009.0 - 15.6 - - 10 - - - -
18/03:00am 19.9 S 3 4 1008.7 - 15.6 - Mostly clear 10 - - - -
18/02:30am 20.1 WSW 2 4 1009.0 - 15.6 - Partly cloudy 10 - - - -
18/02:00am 20.1 WSW 3 4 1009.3 - 15.6 - - 10 - - - -
18/01:30am 20.0 CALM 0 2 1009.6 - 15.6 - - 10 - - - -
18/01:00am 20.0 CALM 0 2 1010.0 - 15.6 - - 10 - - - -
18/12:30am 19.9 N 1 3 1010.2 - 15.6 - - 10 - - - -
18/12:00am 20.3 WNW 3 5 1010.2 - 15.6 - Mostly clear 10 - - - -
 
Date/Time
EST
Temp
°C
Wind Pressure Rain since
9am
mm
Weather Cloud Vis
km
Sea
Height
m
Swell
Dir  Spd
kts
Gust
kts
hPa Trend Height
m
Period
s
Dir
17/11:57pm 20.2 WNW 4 4 1010.3 - 15.6 - Partly cloudy 10 - - - -
17/11:30pm 20.3 NW 3 4 1010.7 - 15.6 - Partly cloudy 10 - - - -
17/11:00pm 20.5 WNW 5 6 1011.1 - 15.6 - Partly cloudy 10 - - - -
17/10:48pm 20.4 WNW 4 5 1011.1 - 15.6 - Partly cloudy 10 - - - -
17/10:30pm 20.5 WSW 4 6 1011.2 - 15.6 - Partly cloudy 10 - - - -
17/10:27pm 20.4 WSW 4 6 1011.1 - 15.6 - Partly cloudy 10 - - - -
17/10:00pm 20.5 NW 3 4 1011.2 - 15.6 - Partly cloudy 10 - - - -
17/09:36pm 20.4 CALM 0 3 1011.2 - 15.4 - Partly cloudy 10 - - - -
17/09:34pm 20.5 CALM 0 0 1011.1 - 15.4 - Partly cloudy 10 - - - -
17/09:30pm 20.4 CALM 0 0 1011.0 - 15.4 - Partly cloudy 9 - - - -
17/09:00pm 20.4 NNW 4 5 1011.0 - 13.6 - Cloudy 3 - - - -
17/08:30pm 20.6 NNW 4 5 1011.0 - 8.2 - Partly cloudy 3 - - - -
17/08:19pm 20.7 NNW 5 6 1010.9 - 6.4 - Partly cloudy 5 - - - -
17/08:00pm 20.8 NW 3 5 1010.9 - 5.6 - Partly cloudy 10 - - - -
17/07:30pm 20.8 SSW 5 7 1010.6 - 5.4 - Cloudy 10 - - - -
17/07:00pm 21.2 W 4 7 1010.6 - 5.0 - Partly cloudy 8 - - - -
17/06:42pm 21.4 W 6 10 1010.2 - 4.4 - Partly cloudy 8 - - - -
17/06:30pm 21.9 WSW 6 10 1009.9 - 4.0 - Partly cloudy 5 - - - -
17/06:26pm 22.0 WSW 6 10 1009.7 - 3.8 - Partly cloudy 5 - - - -
17/06:12pm 22.5 WSW 7 11 1009.8 - 3.0 - Partly cloudy 10 - - - -
17/06:00pm 23.4 SSW 2 8 1009.2 - 3.0 - Cloudy 8 - - - -
17/05:30pm 23.6 S 1 4 1009.0 - 2.6 - Partly cloudy 10 - - - -
17/05:00pm 23.9 SW 2 4 1008.4 - 2.4 - Partly cloudy 10 - - - -
17/04:30pm 24.2 S 4 8 1008.2 - 2.0 - Partly cloudy 10 - - - -
17/04:25pm 24.1 SSW 4 7 1008.1 - 2.0 - Partly cloudy 10 - - - -
17/04:15pm 24.4 SSE 4 5 1008.0 - 2.0 - Partly cloudy 10 - - - -
17/04:00pm 24.4 ESE 4 6 1008.0 - 2.0 - Partly cloudy 10 - - - -
17/03:30pm 24.5 ESE 5 7 1007.8 - 2.0 - Partly cloudy 10 - - - -
17/03:00pm 24.4 ESE 5 7 1007.8 - 2.0 - Cloudy 10 - - - -
17/02:00pm 24.9 SE 8 11 1008.2 - 1.8 - Partly cloudy 10 - - - -
17/01:30pm 24.3 SE 8 12 1008.6 - 1.8 - Partly cloudy 10 - - - -
17/01:00pm 23.7 ESE 8 11 1009.4 - 1.8 - Partly cloudy 10 - - - -
17/12:30pm 23.6 ESE 9 11 1010.1 - 1.0 - Partly cloudy 9 - - - -
17/12:00pm 25.3 ESE 9 13 1010.5 - 0.2 - Cloudy 10 - - - -
17/11:30am 26.3 ESE 10 14 1010.7 - 0.2 - Partly cloudy 10 - - - -
17/11:00am 25.6 ESE 8 13 1011.0 - 0.0 - Partly cloudy 10 - - - -
17/10:30am 25.2 SE 8 12 1011.4 - 0.0 - Cloudy 10 - - - -
17/10:00am 24.8 ESE 10 14 1011.6 - 0.0 - Partly cloudy 10 - - - -
17/09:30am 24.7 SE 8 14 1011.8 - 0.0 - Partly cloudy 10 - - - -
17/09:09am 25.1 SE 8 15 1011.6 - 0.0 - Partly cloudy 10 - - - -
17/09:00am 24.4 ESE 9 15 1011.4 R 0.8 Fine Cloudy 30 - - - -
17/08:37am 24.2 SE 7 11 1011.8 - 0.8 - Partly cloudy 10 - - - -
17/08:30am 24.0 SE 8 11 1011.8 - 0.8 - Partly cloudy 10 - - - -
17/08:20am 24.1 SE 8 12 1011.7 - 0.8 - Partly cloudy 10 - - - -
17/08:00am 24.0 SE 6 10 1011.3 - 0.8 - Partly cloudy 10 - - - -
17/07:30am 24.0 SSE 5 6 1010.5 - 0.8 - Partly cloudy 10 - - - -
17/07:12am 23.9 SE 6 9 1010.2 - 0.8 - Partly cloudy 10 - - - -
17/07:09am 23.9 SE 6 9 1010.1 - 0.8 - Partly cloudy 10 - - - -
17/07:00am 23.8 SE 5 8 1010.0 - 0.8 - Partly cloudy 10 - - - -
17/06:55am 23.9 SE 5 8 1010.0 - 0.8 - Partly cloudy 10 - - - -
17/06:30am 23.6 SE 6 11 1009.4 - 0.8 - Partly cloudy 10 - - - -
17/06:00am 23.2 SSE 3 8 1008.9 - 0.8 - Cloudy 10 - - - -
17/05:30am 23.4 S 2 5 1009.0 - 0.8 - Partly cloudy 10 - - - -
17/05:00am 23.3 ESE 4 6 1008.6 - 0.8 - Partly cloudy 10 - - - -
17/04:30am 23.4 SSE 6 8 1008.2 - 0.8 - Partly cloudy 10 - - - -
17/04:00am 23.2 S 4 5 1008.2 - 0.8 - Partly cloudy 10 - - - -
17/03:30am 22.9 ESE 4 8 1007.7 - 0.8 - Partly cloudy 10 - - - -
17/03:00am 22.6 WSW 1 5 1007.4 - 0.8 - Cloudy 10 - - - -
17/02:30am 22.7 CALM 0 0 1008.3 - 0.8 - Partly cloudy 10 - - - -
17/02:12am 22.8 WNW 2 5 1008.9 - 0.8 - Partly cloudy 10 - - - -
17/02:00am 23.0 CALM 0 0 1009.0 - 0.8 - Partly cloudy 10 - - - -
17/01:30am 22.8 CALM 0 0 1009.1 - 0.6 - Partly cloudy 10 - - - -
17/01:00am 22.7 W 2 3 1009.3 - 0.6 - Partly cloudy 10 - - - -
17/12:56am 22.8 WNW 3 4 1009.4 - 0.6 - Partly cloudy 10 - - - -
17/12:52am 22.8 NW 3 4 1009.6 - 0.6 - Partly cloudy 10 - - - -
17/12:34am 22.7 W 5 6 1009.9 - 0.6 - Partly cloudy 8 - - - -
17/12:30am 22.7 W 4 6 1009.9 - 0.6 - Partly cloudy 10 - - - -
17/12:21am 22.8 WSW 3 4 1009.9 - 0.6 - Partly cloudy 10 - - - -
17/12:00am 22.9 SW 3 3 1010.0 - 0.6 - Cloudy 10 - - - -
 
Date/Time
EST
Temp
°C
Wind Pressure Rain since
9am
mm
Weather Cloud Vis
km
Sea
Height
m
Swell
Dir  Spd
kts
Gust
kts
hPa Trend Height
m
Period
s
Dir
16/11:30pm 23.0 CALM 0 4 1010.7 - 0.6 - Partly cloudy 10 - - - -
16/11:14pm 23.0 W 2 5 1010.9 - 0.6 - Partly cloudy 10 - - - -
16/11:00pm 23.1 NW 2 4 1010.8 - 0.6 - Partly cloudy 10 - - - -
16/10:35pm 23.3 ESE 2 6 1010.9 - 0.6 - Partly cloudy 10 - - - -
16/10:30pm 23.3 SE 1 5 1010.9 - 0.6 - Partly cloudy 10 - - - -
16/10:23pm 23.3 SE 4 8 1011.2 - 0.6 - Partly cloudy 10 - - - -
16/10:00pm 23.1 SE 6 9 1010.7 - 0.4 - Partly cloudy 10 - - - -
16/09:30pm 22.2 SE 1 3 1010.6 - 0.4 - Partly cloudy 10 - - - -
16/09:00pm 22.5 NNW 1 0 1009.8 - 0.2 - Partly cloudy 10 - - - -
16/08:30pm 22.8 W 5 6 1010.5 - 0.2 - Partly cloudy 8 - - - -
16/08:00pm 23.0 ESE 3 4 1010.0 - 0.0 - Partly cloudy 10 - - - -
16/07:30pm 23.9 SW 4 7 1010.0 - 0.0 - Partly cloudy 10 - - - -
16/07:00pm 24.8 SSE 6 9 1009.5 - 0.0 - Partly cloudy 10 - - - -
16/06:30pm 24.8 SE 7 12 1008.9 - 0.0 - Partly cloudy 10 - - - -
16/06:00pm 24.8 SE 9 12 1008.5 - 0.0 - Cloudy 10 - - - -
16/05:30pm 24.8 SE 8 12 1008.2 - 0.0 - Partly cloudy 10 - - - -
16/05:00pm 25.6 SE 9 14 1008.0 - 0.0 - Partly cloudy 10 - - - -
16/04:30pm 25.6 ESE 9 13 1007.3 - 0.0 - Partly cloudy 10 - - - -
16/04:00pm 26.2 ESE 8 13 1007.7 - 0.0 - Partly cloudy 10 - - - -
16/03:30pm 27.1 E 12 17 1007.6 - 0.0 - Partly cloudy 10 - - - -
16/03:00pm 28.0 ESE 10 13 1007.7 - 0.0 - Mostly clear 10 - - - -
16/02:30pm 28.0 ESE 9 13 1008.2 - 0.0 - Partly cloudy 10 - - - -
16/02:00pm 28.1 SE 10 16 1008.5 - 0.0 - Partly cloudy 10 - - - -
16/01:30pm 28.8 E 15 19 1008.7 - 0.0 - Partly cloudy 10 - - - -
16/01:00pm 27.9 ESE 11 15 1009.3 - 0.0 - Partly cloudy 10 - - - -
16/12:30pm 27.5 ESE 11 17 1009.7 - 0.0 - Partly cloudy 10 - - - -
16/12:00pm 27.3 ESE 11 17 1009.9 - 0.0 - Cloudy 10 - - - -
16/11:30am 27.4 SE 11 16 1010.3 - 0.0 - Partly cloudy 10 - - - -
16/11:00am 27.6 ESE 14 21 1010.3 - 0.0 - Partly cloudy 10 - - - -
16/10:30am 27.9 SE 10 14 1010.9 - 0.0 - Partly cloudy 10 - - - -
16/10:00am 28.5 ESE 11 16 1010.6 - 0.0 - Partly cloudy 10 - - - -
16/09:30am 27.3 ESE 12 21 1010.4 - 0.0 - - 10 - - - -
16/09:00am 25.6 SE 10 15 1010.9 - 1.4 - Cloudy 10 - - - -
16/08:50am 25.3 SE 10 13 1011.0 - 1.4 - Partly cloudy 10 - - - -
16/08:38am 25.3 SSE 7 10 1011.1 - 1.4 - Partly cloudy 10 - - - -
16/08:30am 25.3 SE 9 13 1011.1 - 1.4 - Partly cloudy 10 - - - -
16/08:00am 24.3 SE 5 7 1010.8 - 1.4 - Partly cloudy 10 - - - -
16/07:52am 24.0 E 4 5 1010.8 - 1.4 - Partly cloudy 10 - - - -
16/07:30am 23.7 CALM 0 4 1010.6 - 1.4 - Partly cloudy 10 - - - -
16/07:23am 23.7 ESE 1 4 1010.6 - 1.4 - Partly cloudy 10 - - - -
16/07:00am 23.1 S 3 5 1009.6 - 1.4 - - 10 - - - -
16/06:30am 22.9 S 3 4 1009.4 - 1.4 - Partly cloudy 10 - - - -
16/06:06am 22.6 SE 4 7 1008.9 - 1.4 - Partly cloudy 10 - - - -
16/06:00am 22.5 SSE 5 7 1008.6 - 1.4 - Cloudy 10 - - - -
16/05:44am 22.6 ESE 7 10 1008.8 - 1.4 - Partly cloudy 10 - - - -
16/05:30am 22.6 E 5 8 1008.9 - 1.4 - Partly cloudy 10 - - - -
16/05:00am 22.6 E 7 10 1009.6 - 1.2 - Partly cloudy 8 - - - -
16/04:30am 22.7 NW 2 4 1009.7 - 0.8 - Cloudy 9 - - - -
16/04:00am 22.7 ENE 3 4 1009.2 - 0.4 - Partly cloudy 10 - - - -
16/03:33am 23.1 CALM 0 3 1009.2 - 0.4 - Partly cloudy 10 - - - -
16/03:30am 23.1 ESE 1 3 1009.1 - 0.4 - Partly cloudy 10 - - - -
16/03:00am 23.3 E 5 5 1008.7 - 0.4 - Cloudy 8 - - - -
16/02:51am 23.2 ESE 5 6 1008.7 - 0.4 - Partly cloudy 8 - - - -
16/02:44am 23.2 SSE 5 7 1008.4 - 0.4 - Partly cloudy 8 - - - -

Other Formats:

Comma delimited format used in spreadsheet applications
http://www.bom.gov.au/fwo/IDQ60701/IDQ60701.95283.axf

JavaScript Object Notation format (JSON) in row-major order
http://www.bom.gov.au/fwo/IDQ60701/IDQ60701.95283.json